DEDMI EDDH-EDHE
Flight info
| Callsign | DEDMI |
|---|---|
| Flight time | 0h -9m |
| Altitude | 2000 |
| Route | VFR |
| Aircraft | DA40/L-VGD/A |
Departure
| Time | 2026-05-07 10:17 |
|---|---|
| Airport | Hamburg Helmut Schmidt Airport (EDDH) |
Arrival
| Time | 2026-05-07 10:07 |
|---|---|
| Airport | Uetersen-Heist Airfield (EDHE) |
| Time | Latitude | Longitude | Altitude | Speed | Heading |
|---|---|---|---|---|---|
| 2026-05-07 10:07 | 53.62734 | 9.98781 | 40 ft | 0 kts | 64° |
| 2026-05-07 10:14 | 53.62745 | 9.98806 | 40 ft | 5 kts | 45° |
| 2026-05-07 10:14 | 53.62787 | 9.98799 | 40 ft | 9 kts | 328° |
| 2026-05-07 10:14 | 53.62769 | 9.98712 | 40 ft | 12 kts | 231° |
| 2026-05-07 10:15 | 53.62702 | 9.98578 | 40 ft | 17 kts | 230° |
| 2026-05-07 10:15 | 53.62672 | 9.98471 | 40 ft | 10 kts | 282° |
| 2026-05-07 10:15 | 53.62729 | 9.98376 | 38 ft | 13 kts | 321° |
| 2026-05-07 10:15 | 53.62809 | 9.98364 | 37 ft | 11 kts | 34° |
| 2026-05-07 10:16 | 53.62817 | 9.98377 | 37 ft | 0 kts | 48° |
| 2026-05-07 10:16 | 53.62884 | 9.98513 | 38 ft | 37 kts | 50° |
| 2026-05-07 10:16 | 53.63125 | 9.98998 | 83 ft | 63 kts | 51° |
| 2026-05-07 10:16 | 53.63422 | 9.99566 | 235 ft | 69 kts | 37° |
| 2026-05-07 10:17 | 53.63905 | 9.99352 | 465 ft | 85 kts | 313° |
| 2026-05-07 10:17 | 53.63967 | 9.98280 | 662 ft | 100 kts | 250° |
| 2026-05-07 10:17 | 53.63935 | 9.97110 | 839 ft | 103 kts | 288° |
| 2026-05-07 10:17 | 53.64169 | 9.95958 | 1005 ft | 104 kts | 292° |
| 2026-05-07 10:18 | 53.64409 | 9.94801 | 1226 ft | 106 kts | 292° |
| 2026-05-07 10:18 | 53.64640 | 9.93615 | 1433 ft | 107 kts | 290° |
| 2026-05-07 10:18 | 53.64882 | 9.92404 | 1511 ft | 114 kts | 291° |
| 2026-05-07 10:18 | 53.65162 | 9.91108 | 1510 ft | 121 kts | 292° |
| 2026-05-07 10:19 | 53.65454 | 9.89756 | 1517 ft | 125 kts | 292° |
| 2026-05-07 10:19 | 53.65745 | 9.88352 | 1510 ft | 128 kts | 292° |
| 2026-05-07 10:19 | 53.66031 | 9.86916 | 1509 ft | 131 kts | 292° |
| 2026-05-07 10:19 | 53.66317 | 9.85455 | 1507 ft | 131 kts | 291° |
| 2026-05-07 10:20 | 53.66615 | 9.83995 | 1504 ft | 132 kts | 292° |
| 2026-05-07 10:20 | 53.66906 | 9.82523 | 1505 ft | 133 kts | 292° |
| 2026-05-07 10:20 | 53.67196 | 9.81038 | 1499 ft | 132 kts | 292° |
| 2026-05-07 10:20 | 53.67470 | 9.79578 | 1501 ft | 131 kts | 283° |
| 2026-05-07 10:21 | 53.67321 | 9.78047 | 1500 ft | 136 kts | 246° |
| 2026-05-07 10:21 | 53.66923 | 9.76609 | 1494 ft | 135 kts | 243° |
| 2026-05-07 10:21 | 53.66514 | 9.75205 | 1494 ft | 132 kts | 243° |
| 2026-05-07 10:21 | 53.66032 | 9.73932 | 1521 ft | 125 kts | 212° |
| 2026-05-07 10:22 | 53.65221 | 9.73491 | 1469 ft | 122 kts | 181° |
| 2026-05-07 10:22 | 53.64371 | 9.73386 | 1388 ft | 123 kts | 176° |
| 2026-05-07 10:22 | 53.63500 | 9.73278 | 1211 ft | 130 kts | 188° |
| 2026-05-07 10:22 | 53.62950 | 9.72182 | 1092 ft | 131 kts | 266° |
| 2026-05-07 10:23 | 53.62990 | 9.70633 | 859 ft | 133 kts | 276° |
| 2026-05-07 10:23 | 53.63109 | 9.69137 | 744 ft | 123 kts | 281° |
| 2026-05-07 10:23 | 53.63308 | 9.67806 | 724 ft | 108 kts | 303° |
| 2026-05-07 10:23 | 53.63901 | 9.67285 | 624 ft | 91 kts | 357° |
| 2026-05-07 10:24 | 53.64428 | 9.67441 | 486 ft | 70 kts | 54° |
| 2026-05-07 10:24 | 53.64674 | 9.68120 | 280 ft | 67 kts | 72° |
| 2026-05-07 10:24 | 53.64709 | 9.68890 | 151 ft | 65 kts | 91° |
| 2026-05-07 10:24 | 53.64684 | 9.69660 | 25 ft | 65 kts | 92° |
| 2026-05-07 10:25 | 53.64664 | 9.70164 | 22 ft | 18 kts | 107° |
| 2026-05-07 10:25 | 53.64627 | 9.70237 | 23 ft | 5 kts | 134° |
| 2026-05-07 10:25 | 53.64606 | 9.70285 | 23 ft | 7 kts | 118° |
| 2026-05-07 10:25 | 53.64584 | 9.70376 | 23 ft | 10 kts | 103° |
| 2026-05-07 10:26 | 53.64530 | 9.70454 | 23 ft | 14 kts | 190° |
| 2026-05-07 10:26 | 53.64516 | 9.70420 | 23 ft | 0 kts | 282° |